Time;durP1;ratioP1;P1;durP2;ratioP2;P2;SDS_P1;SDS_P2;PMS_P1;PMS_P2;Temp;Humidity;BMP_temperature;BMP_pressure;BME280_temperature;BME280_humidity;BME280_pressure;Samples;Min_cycle;Max_cycle;Signal;HPM_P1;HPM_P2
2023/09/21 00:01:58;;;;;;;;;;;18.30;99.90;;;;;;5100374;28;20120;-77
2023/09/21 00:04:25;;;;;;;1.80;0.90;;;18.30;1.00;;;;;;5106477;28;19920;-76
2023/09/21 00:06:52;;;;;;;1.55;1.00;;;18.30;26.70;;;;;;5075665;28;20051;-76
2023/09/21 00:09:18;;;;;;;1.40;0.90;;;18.30;99.90;;;;;;5100709;28;20711;-76
2023/09/21 00:11:43;;;;;;;;;;;18.30;99.90;;;;;;5109038;27;20039;-76
2023/09/21 00:14:09;;;;;;;1.83;1.00;;;18.30;99.90;;;;;;5102772;28;19998;-76
2023/09/21 00:16:35;;;;;;;;;;;18.30;76.60;;;;;;5079259;28;20115;-76
2023/09/21 00:19:06;;;;;;;1.33;0.90;;;18.40;67.00;;;;;;5110226;27;20362;-76
2023/09/21 00:21:33;;;;;;;1.85;0.85;;;18.30;99.50;;;;;;5091660;28;20397;-76
2023/09/21 00:24:08;;;;;;;0.98;0.75;;;18.30;99.90;;;;;;5084025;27;20057;-76
2023/09/21 00:26:34;;;;;;;1.75;0.90;;;18.30;99.90;;;;;;5099475;28;20039;-77
2023/09/21 00:29:02;;;;;;;;;;;18.30;99.90;;;;;;5084112;27;20555;-77
2023/09/21 00:31:29;;;;;;;1.52;1.00;;;18.30;99.90;;;;;;5117349;27;19915;-77
2023/09/21 00:33:55;;;;;;;2.03;1.00;;;18.30;99.90;;;;;;5090469;28;20054;-76
2023/09/21 00:36:23;;;;;;;1.13;0.90;;;18.30;99.90;;;;;;5105576;27;20251;-76
2023/09/21 00:38:49;;;;;;;1.35;0.90;;;18.30;99.90;;;;;;5082354;28;20104;-76
2023/09/21 00:41:17;;;;;;;;;;;18.30;99.90;;;;;;5099771;28;20051;-76
2023/09/21 00:43:43;;;;;;;1.17;0.77;;;18.40;99.90;;;;;;5085553;28;20335;-76
2023/09/21 00:46:09;;;;;;;;;;;18.40;99.90;;;;;;5099748;27;20034;-76
2023/09/21 00:48:38;;;;;;;1.80;1.10;;;18.40;99.90;;;;;;5120720;27;19993;-77
2023/09/21 00:51:07;;;;;;;3.13;1.15;;;18.50;98.50;;;;;;5119253;27;20043;-77
2023/09/21 00:53:34;;;;;;;2.08;1.10;;;18.50;78.80;;;;;;5111090;27;20046;-76
2023/09/21 00:56:11;;;;;;;1.55;0.90;;;18.60;66.00;;;;;;5104216;27;20142;-76
2023/09/21 00:58:45;;;;;;;1.73;0.70;;;18.60;66.00;;;;;;5092882;27;20134;-77
2023/09/21 01:01:16;;;;;;;1.38;0.95;;;18.60;43.20;;;;;;5106606;27;20078;-77
2023/09/21 01:03:43;;;;;;;1.25;1.00;;;18.60;43.20;;;;;;5115653;27;20517;-76
2023/09/21 01:06:09;;;;;;;1.63;0.77;;;18.60;35.00;;;;;;5126965;27;20092;-76
2023/09/21 01:08:34;;;;;;;;;;;18.60;31.00;;;;;;5103017;28;20047;-77
2023/09/21 01:11:07;;;;;;;1.92;1.08;;;18.60;25.30;;;;;;5106642;28;20222;-76
2023/09/21 01:13:35;;;;;;;3.10;1.00;;;18.60;26.50;;;;;;5107134;28;20391;-76
2023/09/21 01:16:03;;;;;;;1.50;1.00;;;18.70;19.90;;;;;;5083252;28;20120;-77
2023/09/21 01:18:29;;;;;;;1.45;0.90;;;18.70;4.60;;;;;;5105579;28;20040;-76
2023/09/21 01:20:55;;;;;;;;;;;18.60;9.40;;;;;;5089956;28;20509;-76
2023/09/21 01:23:35;;;;;;;1.55;1.00;;;18.70;9.30;;;;;;5103169;28;19919;-76
2023/09/21 01:26:01;;;;;;;1.65;1.00;;;18.70;15.30;;;;;;5116926;28;20043;-76
2023/09/21 01:28:29;;;;;;;1.33;0.90;;;18.60;12.10;;;;;;5114347;28;20382;-77
2023/09/21 01:30:58;;;;;;;1.50;1.08;;;18.70;5.00;;;;;;5086609;28;20048;-77
2023/09/21 01:33:24;;;;;;;1.70;1.08;;;18.70;1.00;;;;;;5104820;28;20412;-76
2023/09/21 01:35:50;;;;;;;;;;;18.80;1.00;;;;;;5089365;28;20047;-77
2023/09/21 01:38:17;;;;;;;2.05;1.17;;;18.80;1.00;;;;;;5099726;28;19941;-76
2023/09/21 01:40:43;;;;;;;1.58;0.90;;;18.70;1.00;;;;;;5108320;28;20108;-76
2023/09/21 01:43:10;;;;;;;1.35;0.90;;;18.80;1.00;;;;;;5091966;28;20316;-76
2023/09/21 01:45:42;;;;;;;1.30;0.80;;;18.80;1.00;;;;;;5081614;28;20425;-76
2023/09/21 01:48:14;;;;;;;1.95;1.00;;;18.70;1.00;;;;;;5106968;28;20035;-76
2023/09/21 01:50:43;;;;;;;1.48;1.00;;;18.70;1.00;;;;;;5102964;28;20153;-76
2023/09/21 01:53:13;;;;;;;1.25;0.80;;;18.70;1.00;;;;;;5105205;28;20065;-76
2023/09/21 01:55:40;;;;;;;1.17;0.90;;;18.70;1.00;;;;;;5094847;28;20040;-76
2023/09/21 01:58:07;;;;;;;1.73;0.90;;;18.70;1.00;;;;;;5089042;28;20157;-76
2023/09/21 02:00:35;;;;;;;1.58;1.00;;;18.70;1.00;;;;;;5077155;28;20043;-76
2023/09/21 02:03:06;;;;;;;1.60;0.80;;;18.70;1.00;;;;;;5078914;28;20047;-76
2023/09/21 02:05:32;;;;;;;1.55;1.20;;;18.70;1.20;;;;;;5114504;28;20086;-76
2023/09/21 02:07:58;;;;;;;1.65;0.80;;;18.60;4.20;;;;;;5123727;28;20043;-76
2023/09/21 02:10:24;;;;;;;1.35;0.98;;;18.50;10.70;;;;;;5113308;28;20066;-76
2023/09/21 02:12:54;;;;;;;;;;;18.50;37.80;;;;;;5118827;28;20126;-76
2023/09/21 02:15:20;;;;;;;1.40;0.90;;;18.50;62.20;;;;;;5121021;28;20011;-76
2023/09/21 02:17:46;;;;;;;1.30;0.90;;;18.40;76.50;;;;;;5121412;28;20098;-76
2023/09/21 02:20:16;;;;;;;;;;;18.30;79.10;;;;;;5099394;28;20067;-76
2023/09/21 02:22:49;;;;;;;1.17;0.88;;;18.30;82.90;;;;;;5122474;28;19923;-76
2023/09/21 02:25:16;;;;;;;1.67;1.13;;;18.30;91.80;;;;;;5102800;28;20132;-76
2023/09/21 02:27:47;;;;;;;1.40;1.08;;;18.30;84.80;;;;;;5117372;28;20051;-76
2023/09/21 02:30:17;;;;;;;2.28;1.10;;;18.30;87.70;;;;;;5088027;27;20083;-76
2023/09/21 02:32:45;;;;;;;1.55;0.85;;;18.30;86.20;;;;;;5094229;28;20047;-76
2023/09/21 02:35:15;;;;;;;2.05;0.98;;;18.30;77.90;;;;;;5101925;28;20048;-76
2023/09/21 02:37:48;;;;;;;1.55;0.90;;;18.30;85.00;;;;;;5107095;27;20814;-76
2023/09/21 02:40:16;;;;;;;2.25;0.90;;;18.30;86.00;;;;;;5103179;28;20482;-76
2023/09/21 02:42:46;;;;;;;1.42;0.98;;;18.30;83.20;;;;;;5118106;27;20501;-76
2023/09/21 02:45:12;;;;;;;2.15;1.10;;;18.30;88.20;;;;;;5090011;27;20040;-76
2023/09/21 02:47:41;;;;;;;1.02;0.80;;;18.30;77.40;;;;;;5110728;27;20040;-76
2023/09/21 02:50:27;;;;;;;1.73;0.90;;;18.30;80.00;;;;;;5100667;27;20123;-76
2023/09/21 02:53:05;;;;;;;1.45;0.88;;;18.30;79.40;;;;;;5111927;27;20082;-76
2023/09/21 02:55:33;;;;;;;2.08;1.27;;;18.40;41.50;;;;;;5115099;27;20132;-76
2023/09/21 02:57:59;;;;;;;1.50;0.85;;;18.40;23.60;;;;;;5109419;27;20515;-76
2023/09/21 03:00:29;;;;;;;1.35;1.00;;;18.40;26.20;;;;;;5106569;28;20043;-76
2023/09/21 03:02:56;;;;;;;1.42;0.80;;;18.40;17.60;;;;;;5111838;27;20056;-76
2023/09/21 03:05:26;;;;;;;1.20;0.90;;;18.50;11.70;;;;;;5122695;27;20047;-76
2023/09/21 03:07:52;;;;;;;1.20;0.82;;;18.50;1.00;;;;;;5116449;27;20135;-76
2023/09/21 03:10:18;;;;;;;;;;;18.50;1.00;;;;;;5120856;27;20069;-76
2023/09/21 03:12:47;;;;;;;1.60;0.90;;;18.50;1.00;;;;;;5114049;27;19924;-76
2023/09/21 03:15:14;;;;;;;3.05;1.20;;;18.60;1.00;;;;;;5105735;27;20039;-76
2023/09/21 03:17:41;;;;;;;1.23;0.90;;;18.60;1.00;;;;;;5100471;28;20067;-76
2023/09/21 03:20:12;;;;;;;2.00;1.10;;;18.60;1.00;;;;;;5118129;27;20126;-76
2023/09/21 03:22:41;;;;;;;1.52;1.20;;;18.60;1.00;;;;;;5097230;28;20122;-76
2023/09/21 03:25:11;;;;;;;1.15;0.80;;;18.60;1.00;;;;;;5112607;27;20506;-76
2023/09/21 03:27:40;;;;;;;1.80;1.00;;;18.60;1.00;;;;;;5119739;27;20511;-76
2023/09/21 03:30:10;;;;;;;1.77;0.95;;;18.60;1.00;;;;;;5103767;27;20565;-77
2023/09/21 03:32:38;;;;;;;1.02;0.90;;;18.60;1.00;;;;;;5093797;28;20115;-76
2023/09/21 03:35:06;;;;;;;1.20;0.85;;;18.50;1.00;;;;;;5090745;28;20040;-76
2023/09/21 03:37:31;;;;;;;1.60;0.82;;;18.50;1.00;;;;;;5099753;27;20111;-76
2023/09/21 03:39:57;;;;;;;;;;;18.50;1.00;;;;;;5105200;28;20122;-76
2023/09/21 03:42:23;;;;;;;1.17;0.90;;;18.50;1.00;;;;;;5109748;28;20343;-76
2023/09/21 03:44:48;;;;;;;;;;;18.50;1.00;;;;;;5088220;27;20035;-76
2023/09/21 03:47:17;;;;;;;1.77;1.10;;;18.50;1.00;;;;;;5089902;28;19923;-76
2023/09/21 03:49:44;;;;;;;2.80;1.30;;;18.50;1.00;;;;;;5107455;28;20047;-77
2023/09/21 03:52:16;;;;;;;1.17;0.85;;;18.50;1.00;;;;;;5105841;27;20146;-76
2023/09/21 03:54:47;;;;;;;1.27;0.88;;;18.50;1.00;;;;;;5108476;27;20065;-76
2023/09/21 03:57:16;;;;;;;1.70;1.00;;;18.50;1.90;;;;;;5110060;27;20067;-77
2023/09/21 03:59:42;;;;;;;1.92;1.00;;;18.50;1.00;;;;;;5091099;28;20054;-77
2023/09/21 04:02:08;;;;;;;1.40;1.10;;;18.50;1.00;;;;;;5090386;28;20118;-77
2023/09/21 04:04:34;;;;;;;;;;;18.60;1.00;;;;;;5108381;27;20105;-78
2023/09/21 04:07:00;;;;;;;1.58;0.98;;;18.60;1.00;;;;;;5112348;27;20011;-77
2023/09/21 04:09:25;;;;;;;;;;;18.60;1.00;;;;;;5112446;27;20050;-77
2023/09/21 04:11:51;;;;;;;2.15;1.33;;;18.60;1.00;;;;;;5113967;27;20412;-76
2023/09/21 04:14:16;;;;;;;;;;;18.60;1.00;;;;;;5107461;27;20473;-77
2023/09/21 04:16:42;;;;;;;1.95;1.25;;;18.60;1.00;;;;;;5114782;27;20277;-77
2023/09/21 04:19:10;;;;;;;;;;;18.60;1.00;;;;;;5119102;27;20145;-75
2023/09/21 04:21:39;;;;;;;1.58;0.95;;;18.50;1.00;;;;;;5111411;27;19915;-76
2023/09/21 04:24:05;;;;;;;1.20;0.90;;;18.50;1.00;;;;;;5113101;27;20054;-76
2023/09/21 04:26:31;;;;;;;0.93;0.80;;;18.50;7.20;;;;;;5083105;27;20047;-76
2023/09/21 04:28:56;;;;;;;;;;;18.50;15.80;;;;;;5125271;27;20050;-76
2023/09/21 04:31:22;;;;;;;0.85;0.70;;;18.50;3.60;;;;;;5110425;27;19945;-77
2023/09/21 04:33:48;;;;;;;;;;;18.40;24.20;;;;;;5121352;27;20099;-76
2023/09/21 04:36:14;;;;;;;2.08;0.90;;;18.40;39.90;;;;;;5118869;27;19923;-76
2023/09/21 04:38:39;;;;;;;;;;;18.30;46.10;;;;;;5096943;27;20509;-76
2023/09/21 04:41:05;;;;;;;1.65;1.00;;;18.30;52.00;;;;;;5111735;27;19915;-76
2023/09/21 04:43:32;;;;;;;1.35;0.77;;;18.30;68.60;;;;;;5103297;27;20055;-76
2023/09/21 04:46:03;;;;;;;1.05;0.73;;;18.30;84.60;;;;;;5107922;27;20067;-76
2023/09/21 04:48:30;;;;;;;1.08;0.80;;;18.20;93.50;;;;;;5102179;27;20035;-76
2023/09/21 04:50:56;;;;;;;1.30;0.88;;;18.10;96.70;;;;;;5080328;27;20050;-76
2023/09/21 04:53:22;;;;;;;2.35;0.82;;;18.10;99.80;;;;;;5110256;27;20488;-76
2023/09/21 04:55:47;;;;;;;;;;;18.10;99.90;;;;;;5108763;27;20066;-76
2023/09/21 04:58:13;;;;;;;1.30;0.90;;;18.00;99.90;;;;;;5102970;27;19916;-76
2023/09/21 05:00:39;;;;;;;;;;;18.10;99.90;;;;;;5115555;27;20039;-76
2023/09/21 05:03:06;;;;;;;1.63;0.90;;;18.00;99.90;;;;;;5090165;27;19919;-76
2023/09/21 05:05:31;;;;;;;1.65;0.90;;;18.00;99.90;;;;;;5117093;27;20043;-76
2023/09/21 05:07:58;;;;;;;;;;;18.00;99.90;;;;;;5106800;28;20051;-77
2023/09/21 05:10:23;;;;;;;1.02;0.70;;;18.00;99.90;;;;;;5105662;27;19923;-76
2023/09/21 05:12:51;;;;;;;;;;;18.00;99.90;;;;;;5109910;27;20674;-76
2023/09/21 05:15:17;;;;;;;1.17;0.80;;;18.00;99.90;;;;;;5107093;28;20010;-77
2023/09/21 05:17:43;;;;;;;;;;;18.00;99.90;;;;;;5105415;28;20118;-77
2023/09/21 05:20:09;;;;;;;1.98;1.08;;;18.00;99.90;;;;;;5103498;28;20370;-77
2023/09/21 05:22:35;;;;;;;;;;;18.00;99.90;;;;;;5087568;28;20047;-77
2023/09/21 05:25:02;;;;;;;1.20;0.77;;;18.00;99.90;;;;;;5082599;28;19965;-76
2023/09/21 05:27:31;;;;;;;2.15;0.90;;;18.00;99.90;;;;;;5098613;28;20096;-77
2023/09/21 05:29:58;;;;;;;0.82;0.63;;;18.10;99.90;;;;;;5101302;28;20043;-77
2023/09/21 05:32:24;;;;;;;1.42;0.82;;;18.10;99.90;;;;;;5105289;28;20494;-76
2023/09/21 05:34:51;;;;;;;;;;;18.10;99.90;;;;;;5087028;28;20082;-76
2023/09/21 05:37:19;;;;;;;1.38;0.70;;;18.10;99.90;;;;;;5106721;28;19961;-76
2023/09/21 05:39:46;;;;;;;1.05;0.75;;;18.10;99.90;;;;;;5090480;28;20053;-76
2023/09/21 05:42:12;;;;;;;1.10;0.80;;;18.10;99.90;;;;;;5097910;28;20044;-76
2023/09/21 05:44:38;;;;;;;1.27;0.80;;;18.10;99.90;;;;;;5114593;28;20043;-76
2023/09/21 05:47:04;;;;;;;2.67;1.50;;;18.20;99.90;;;;;;5099019;28;20047;-77
2023/09/21 05:49:32;;;;;;;;;;;18.20;99.90;;;;;;5085601;28;20566;-76
2023/09/21 05:51:58;;;;;;;1.02;0.68;;;18.20;99.90;;;;;;5101800;28;21265;-76
2023/09/21 05:54:23;;;;;;;;;;;18.20;99.90;;;;;;5106350;28;20043;-76
2023/09/21 05:56:58;;;;;;;1.95;0.90;;;18.20;99.90;;;;;;5082520;28;19923;-76
2023/09/21 05:59:24;;;;;;;2.08;0.90;;;18.20;99.90;;;;;;5075550;28;20066;-76
2023/09/21 06:01:50;;;;;;;1.00;0.90;;;18.30;99.90;;;;;;5105083;28;20047;-76
2023/09/21 06:04:21;;;;;;;;;;;18.20;99.90;;;;;;5090011;28;20046;-76
2023/09/21 06:06:47;;;;;;;1.40;1.00;;;18.30;99.90;;;;;;5108244;28;19920;-76
2023/09/21 06:09:18;;;;;;;1.00;0.75;;;18.30;99.90;;;;;;5078979;28;20087;-76
2023/09/21 06:11:45;;;;;;;1.25;0.73;;;18.30;92.10;;;;;;5105406;28;20047;-77
2023/09/21 06:14:11;;;;;;;1.15;0.93;;;18.30;91.00;;;;;;5094538;28;20097;-76
2023/09/21 06:16:37;;;;;;;;;;;18.40;81.90;;;;;;5091611;28;20048;-76
2023/09/21 06:19:02;;;;;;;2.05;1.10;;;18.40;85.30;;;;;;5088016;28;20038;-76
2023/09/21 06:21:30;;;;;;;;;;;18.50;98.40;;;;;;5100711;28;20054;-76
2023/09/21 06:23:56;;;;;;;1.90;1.10;;;18.50;99.90;;;;;;5086703;28;19973;-76
2023/09/21 06:26:22;;;;;;;;;;;18.40;99.90;;;;;;5097178;28;20173;-76
2023/09/21 06:28:48;;;;;;;1.53;0.93;;;18.40;99.90;;;;;;5093485;28;20227;-76
2023/09/21 06:31:14;;;;;;;;;;;18.40;99.90;;;;;;5108155;28;20361;-76
2023/09/21 06:33:40;;;;;;;1.48;0.90;;;18.30;99.90;;;;;;5094345;28;20422;-76
2023/09/21 06:36:15;;;;;;;0.98;0.70;;;18.30;99.90;;;;;;5099715;28;20097;-76
2023/09/21 06:38:44;;;;;;;1.70;0.80;;;18.20;99.90;;;;;;5067500;28;20035;-76
2023/09/21 06:41:11;;;;;;;1.00;0.80;;;18.20;99.90;;;;;;5111621;28;20063;-76
2023/09/21 06:43:43;;;;;;;1.50;0.98;;;18.20;99.90;;;;;;5088085;28;20123;-76
2023/09/21 06:46:12;;;;;;;1.48;0.80;;;18.20;99.90;;;;;;5100662;28;20039;-75
2023/09/21 06:48:38;;;;;;;1.58;0.85;;;18.20;99.90;;;;;;5106662;28;20074;-76
2023/09/21 06:51:05;;;;;;;1.33;1.02;;;18.20;99.90;;;;;;5103735;28;20070;-76
2023/09/21 06:53:31;;;;;;;1.13;0.88;;;18.20;99.90;;;;;;5108697;28;20756;-76
2023/09/21 06:55:58;;;;;;;1.90;0.93;;;18.20;99.90;;;;;;5108766;28;20146;-76
2023/09/21 06:58:24;;;;;;;2.47;1.20;;;18.20;99.90;;;;;;5111423;28;20052;-77
2023/09/21 07:00:50;;;;;;;1.15;0.90;;;18.20;99.90;;;;;;5105542;27;20076;-76
2023/09/21 07:03:18;;;;;;;;;;;18.00;99.90;;;;;;5109271;27;20495;-76
2023/09/21 07:05:48;;;;;;;3.05;1.10;;;17.90;99.90;;;;;;5090192;27;21718;-76
2023/09/21 07:08:14;;;;;;;2.22;1.30;;;17.80;99.90;;;;;;5114405;27;20051;-77
2023/09/21 07:10:40;;;;;;;1.52;1.02;;;17.80;99.90;;;;;;5089808;28;20055;-76
2023/09/21 07:13:07;;;;;;;;;;;17.70;99.90;;;;;;5114914;27;20379;-76
2023/09/21 07:15:33;;;;;;;1.80;1.00;;;17.60;99.90;;;;;;5115667;27;19920;-76
2023/09/21 07:17:59;;;;;;;3.03;1.10;;;17.50;99.90;;;;;;5105510;28;20042;-77
2023/09/21 07:20:26;;;;;;;2.15;1.25;;;17.50;99.90;;;;;;5091550;28;20138;-76
2023/09/21 07:22:56;;;;;;;1.90;1.02;;;17.40;99.90;;;;;;5106457;28;20436;-76
2023/09/21 07:25:25;;;;;;;1.05;0.80;;;17.40;99.90;;;;;;5113294;27;20514;-76
2023/09/21 07:27:52;;;;;;;0.88;0.75;;;17.30;99.90;;;;;;5107913;28;20439;-76
2023/09/21 07:30:18;;;;;;;1.65;0.82;;;17.30;99.90;;;;;;5088472;28;20048;-75
2023/09/21 07:32:44;;;;;;;;;;;17.20;99.90;;;;;;5110823;27;20486;-78
2023/09/21 07:35:10;;;;;;;1.42;0.90;;;17.30;99.90;;;;;;5095348;28;19974;-77
2023/09/21 07:37:36;;;;;;;;;;;17.30;99.90;;;;;;5093471;28;20031;-77
2023/09/21 07:40:06;;;;;;;1.40;0.85;;;17.20;99.90;;;;;;5094226;28;19920;-76
2023/09/21 07:42:36;;;;;;;1.50;0.82;;;17.20;99.90;;;;;;5088632;28;20517;-77
2023/09/21 07:45:02;;;;;;;1.52;0.75;;;17.20;99.90;;;;;;5082766;27;20450;-77
2023/09/21 07:47:27;;;;;;;;;;;17.20;99.90;;;;;;5089097;28;20035;-77
2023/09/21 07:49:55;;;;;;;1.10;0.88;;;17.20;99.90;;;;;;5096953;28;20322;-77
2023/09/21 07:52:23;;;;;;;1.80;0.82;;;17.10;99.90;;;;;;5093846;28;20788;-77
2023/09/21 07:54:50;;;;;;;1.00;0.70;;;17.10;99.90;;;;;;5095726;28;20481;-77
2023/09/21 07:57:16;;;;;;;1.13;0.82;;;17.10;99.90;;;;;;5073545;28;20072;-76
2023/09/21 07:59:43;;;;;;;0.80;0.60;;;17.20;99.90;;;;;;5085932;28;20047;-76
2023/09/21 08:02:09;;;;;;;1.00;0.70;;;17.10;99.90;;;;;;5093741;28;20051;-76
2023/09/21 08:04:36;;;;;;;1.00;0.70;;;17.10;99.90;;;;;;5094842;28;20047;-76
2023/09/21 08:07:05;;;;;;;1.40;0.82;;;17.10;99.90;;;;;;5074330;28;20516;-76
2023/09/21 08:09:31;;;;;;;0.98;0.80;;;17.10;99.90;;;;;;5093191;28;20085;-77
2023/09/21 08:11:57;;;;;;;1.63;1.02;;;17.00;99.90;;;;;;5076700;28;20044;-77
2023/09/21 08:14:25;;;;;;;;;;;17.00;99.90;;;;;;5094181;28;20047;-77
2023/09/21 08:16:53;;;;;;;0.95;0.70;;;17.00;99.90;;;;;;5098844;27;20282;-77
2023/09/21 08:19:19;;;;;;;1.13;0.82;;;17.00;99.90;;;;;;5078905;28;20819;-77
2023/09/21 08:21:45;;;;;;;;;;;17.00;99.90;;;;;;5098119;28;20138;-77
2023/09/21 08:24:10;;;;;;;1.40;0.80;;;17.00;99.90;;;;;;5093485;28;19915;-77
2023/09/21 08:26:37;;;;;;;;;;;16.90;99.90;;;;;;5076008;28;20058;-77
2023/09/21 08:29:04;;;;;;;2.42;1.00;;;16.90;99.90;;;;;;5099292;28;19919;-77
2023/09/21 08:31:30;;;;;;;1.27;0.90;;;16.90;99.90;;;;;;5083876;27;20042;-77
2023/09/21 08:33:57;;;;;;;;;;;17.00;99.90;;;;;;5104225;27;20478;-77
2023/09/21 08:36:23;;;;;;;1.70;0.90;;;16.90;99.90;;;;;;5120221;27;19919;-77
2023/09/21 08:38:49;;;;;;;;;;;17.00;99.90;;;;;;5114067;27;20863;-77
2023/09/21 08:41:16;;;;;;;1.30;0.85;;;16.90;99.90;;;;;;5100929;28;19927;-77
2023/09/21 08:43:43;;;;;;;1.40;1.00;;;17.00;99.90;;;;;;5105342;27;20051;-77
2023/09/21 08:46:11;;;;;;;2.83;1.20;;;16.90;99.90;;;;;;5109008;27;20071;-77
2023/09/21 08:48:39;;;;;;;1.75;1.10;;;16.90;99.90;;;;;;5092998;28;20044;-76
2023/09/21 08:51:11;;;;;;;1.50;1.02;;;16.90;99.90;;;;;;5075307;28;20129;-76
2023/09/21 08:53:39;;;;;;;1.58;1.00;;;16.90;99.90;;;;;;5109355;27;20137;-76
2023/09/21 08:56:05;;;;;;;1.63;1.10;;;16.80;99.90;;;;;;5118218;27;20043;-76
2023/09/21 08:58:37;;;;;;;;;;;16.70;99.90;;;;;;5099008;28;20051;-76
2023/09/21 09:01:03;;;;;;;1.40;1.00;;;16.80;99.90;;;;;;5113723;27;20046;-76
2023/09/21 09:03:30;;;;;;;1.67;1.20;;;16.70;99.90;;;;;;5097857;27;20165;-75
2023/09/21 09:05:58;;;;;;;1.67;1.08;;;16.70;99.90;;;;;;5076275;28;20100;-76
2023/09/21 09:08:25;;;;;;;2.25;0.90;;;16.70;99.90;;;;;;5103316;27;20063;-76
2023/09/21 09:10:53;;;;;;;2.80;1.25;;;16.70;99.90;;;;;;5094701;28;20129;-76
2023/09/21 09:13:20;;;;;;;1.38;0.90;;;16.50;99.90;;;;;;5101383;27;20095;-76
2023/09/21 09:15:45;;;;;;;1.02;0.57;;;16.20;99.90;;;;;;5097838;28;20342;-76
2023/09/21 09:18:15;;;;;;;0.50;0.50;;;16.10;99.90;;;;;;5083802;28;20039;-75
2023/09/21 09:20:44;;;;;;;0.55;0.40;;;16.00;99.90;;;;;;5121717;28;20043;-76
2023/09/21 09:23:12;;;;;;;0.85;0.50;;;15.80;99.90;;;;;;5092453;28;20395;-75
2023/09/21 09:25:39;;;;;;;0.70;0.50;;;15.80;99.90;;;;;;5104637;28;20409;-76
2023/09/21 09:28:08;;;;;;;0.32;0.32;;;15.60;99.90;;;;;;5106501;28;20040;-75
2023/09/21 09:30:35;;;;;;;0.57;0.30;;;15.60;99.90;;;;;;5092393;28;20068;-76
2023/09/21 09:33:03;;;;;;;0.50;0.40;;;15.50;99.90;;;;;;5111977;28;20386;-76
2023/09/21 09:35:30;;;;;;;0.65;0.40;;;15.50;99.90;;;;;;5100606;28;20111;-76
2023/09/21 09:37:57;;;;;;;0.88;0.50;;;15.40;99.90;;;;;;5095583;27;20047;-76
2023/09/21 09:40:24;;;;;;;0.52;0.40;;;15.50;99.90;;;;;;5080209;28;20533;-75
2023/09/21 09:42:54;;;;;;;0.98;0.57;;;15.40;99.90;;;;;;5096920;28;20126;-75
2023/09/21 09:45:25;;;;;;;1.35;0.57;;;15.50;99.90;;;;;;5096605;28;20044;-75
2023/09/21 09:47:57;;;;;;;0.73;0.40;;;15.50;99.90;;;;;;5107788;27;20036;-75
2023/09/21 09:50:33;;;;;;;0.60;0.50;;;15.50;99.90;;;;;;5109164;27;20049;-75
2023/09/21 09:53:07;;;;;;;0.90;0.50;;;15.40;99.90;;;;;;5111097;27;20041;-75
2023/09/21 09:55:35;;;;;;;1.00;0.43;;;15.30;99.90;;;;;;5110656;28;20126;-74
2023/09/21 09:58:03;;;;;;;1.48;0.60;;;15.40;99.90;;;;;;5087165;27;20039;-75
2023/09/21 10:00:30;;;;;;;0.60;0.50;;;15.30;99.90;;;;;;5106802;27;20051;-75
2023/09/21 10:02:57;;;;;;;0.57;0.47;;;15.30;99.90;;;;;;5092236;27;20050;-75
2023/09/21 10:05:26;;;;;;;1.70;0.60;;;15.40;99.90;;;;;;5113120;27;20485;-75
2023/09/21 10:07:54;;;;;;;1.05;0.60;;;15.30;99.90;;;;;;5111309;27;20054;-75
2023/09/21 10:10:24;;;;;;;0.75;0.50;;;15.10;99.90;;;;;;5115064;27;20042;-75
2023/09/21 10:12:52;;;;;;;0.50;0.40;;;15.10;99.90;;;;;;5108596;28;20044;-75
2023/09/21 10:15:23;;;;;;;0.70;0.50;;;14.90;99.90;;;;;;5112794;27;20367;-75
2023/09/21 10:17:54;;;;;;;0.73;0.50;;;14.90;99.90;;;;;;5095553;27;20472;-75
2023/09/21 10:20:27;;;;;;;0.90;0.52;;;14.90;99.90;;;;;;5110068;27;20035;-75
2023/09/21 10:22:58;;;;;;;1.63;0.60;;;15.00;99.90;;;;;;5094193;27;20454;-76
2023/09/21 10:25:45;;;;;;;0.60;0.40;;;15.00;99.90;;;;;;5110313;27;20424;-76
2023/09/21 10:28:27;;;;;;;1.08;0.43;;;15.00;99.90;;;;;;5094272;28;20028;-76
2023/09/21 10:31:14;;;;;;;0.60;0.45;;;15.10;99.90;;;;;;5103998;28;20039;-76
2023/09/21 10:33:51;;;;;;;0.98;0.50;;;15.10;99.90;;;;;;5071236;28;20109;-76
2023/09/21 10:36:21;;;;;;;0.80;0.50;;;15.00;99.90;;;;;;5078713;28;20044;-76
2023/09/21 10:39:10;;;;;;;0.68;0.47;;;14.90;99.90;;;;;;5095599;28;20067;-76
2023/09/21 10:41:43;;;;;;;0.80;0.60;;;15.10;99.90;;;;;;5095366;28;20039;-76
2023/09/21 10:44:12;;;;;;;0.65;0.40;;;15.10;99.90;;;;;;5095355;28;20048;-76
2023/09/21 10:46:41;;;;;;;0.70;0.32;;;15.20;99.90;;;;;;5078537;28;20347;-76
2023/09/21 10:49:07;;;;;;;0.30;0.30;;;15.30;99.90;;;;;;5095056;28;20390;-76
2023/09/21 10:51:34;;;;;;;0.35;0.30;;;15.20;99.90;;;;;;5095555;28;20039;-76
2023/09/21 10:54:03;;;;;;;0.68;0.40;;;15.30;99.90;;;;;;5095246;28;20044;-76
2023/09/21 10:56:29;;;;;;;0.10;0.10;;;15.30;99.90;;;;;;5095248;28;20040;-76
2023/09/21 10:58:54;;;;;;;0.30;0.20;;;15.40;99.90;;;;;;5095132;28;20043;-76
2023/09/21 11:01:22;;;;;;;0.40;0.20;;;15.50;99.90;;;;;;5095239;28;20047;-76
2023/09/21 11:03:49;;;;;;;0.45;0.25;;;15.60;99.90;;;;;;5095180;28;20036;-76
2023/09/21 11:06:16;;;;;;;0.60;0.30;;;15.60;99.90;;;;;;5095268;28;20382;-76
2023/09/21 11:08:49;;;;;;;0.50;0.20;;;15.70;99.90;;;;;;5094607;28;20079;-76
2023/09/21 11:11:15;;;;;;;1.67;0.30;;;15.90;99.90;;;;;;5094920;28;20047;-76
2023/09/21 11:13:42;;;;;;;0.38;0.20;;;15.80;99.90;;;;;;5094764;28;20452;-76
2023/09/21 11:16:09;;;;;;;0.60;0.40;;;16.00;99.90;;;;;;5094363;28;20470;-76
2023/09/21 11:18:38;;;;;;;0.30;0.30;;;15.90;99.90;;;;;;5094831;28;20043;-76
2023/09/21 11:21:04;;;;;;;0.50;0.38;;;16.00;99.90;;;;;;5113042;28;20035;-76
2023/09/21 11:23:33;;;;;;;0.60;0.40;;;15.90;99.90;;;;;;5094781;28;20059;-76
2023/09/21 11:26:00;;;;;;;0.55;0.22;;;15.80;99.90;;;;;;5094483;28;20054;-76
2023/09/21 11:28:27;;;;;;;0.30;0.30;;;15.80;99.90;;;;;;5077840;28;20036;-76
2023/09/21 11:30:56;;;;;;;0.43;0.20;;;15.80;99.90;;;;;;5098950;28;20123;-76
2023/09/21 11:33:22;;;;;;;0.68;0.45;;;15.80;99.90;;;;;;5094743;28;20038;-76
2023/09/21 11:35:48;;;;;;;0.47;0.28;;;15.80;99.90;;;;;;5094436;28;20455;-76
2023/09/21 11:38:17;;;;;;;0.50;0.20;;;15.90;99.90;;;;;;5077502;28;20043;-76
2023/09/21 11:40:43;;;;;;;0.28;0.20;;;15.90;99.90;;;;;;5094505;28;20044;-76
2023/09/21 11:43:13;;;;;;;0.30;0.17;;;15.90;99.90;;;;;;5094413;28;20492;-76
2023/09/21 11:45:39;;;;;;;0.20;0.20;;;15.90;99.90;;;;;;5063928;28;20589;-76
2023/09/21 11:48:06;;;;;;;0.70;0.20;;;15.80;99.90;;;;;;5094156;28;20146;-76
2023/09/21 11:50:34;;;;;;;0.20;0.20;;;15.80;99.90;;;;;;5094133;28;20105;-76
2023/09/21 11:53:04;;;;;;;0.57;0.20;;;15.80;99.90;;;;;;5094026;28;20135;-76
2023/09/21 11:55:31;;;;;;;0.25;0.17;;;15.90;99.90;;;;;;5093877;28;20078;-76
2023/09/21 11:58:11;;;;;;;0.30;0.20;;;16.00;99.90;;;;;;5094190;28;20478;-76
2023/09/21 12:00:44;;;;;;;0.43;0.28;;;16.00;99.90;;;;;;5093705;28;20086;-76
2023/09/21 12:03:21;;;;;;;0.40;0.30;;;16.00;99.90;;;;;;5077020;28;20043;-76
2023/09/21 12:05:47;;;;;;;0.40;0.30;;;16.00;99.90;;;;;;5077457;28;20036;-77
2023/09/21 12:08:19;;;;;;;0.40;0.30;;;16.00;99.90;;;;;;5076823;28;20124;-76
2023/09/21 12:10:45;;;;;;;0.57;0.30;;;15.90;99.90;;;;;;5076988;28;20071;-76
2023/09/21 12:13:12;;;;;;;0.57;0.40;;;15.90;99.90;;;;;;5111040;28;20104;-76
2023/09/21 12:15:39;;;;;;;0.50;0.30;;;15.80;99.90;;;;;;5093528;28;20444;-75
2023/09/21 12:18:07;;;;;;;0.60;0.32;;;15.80;99.90;;;;;;5077026;28;20055;-75
2023/09/21 12:20:33;;;;;;;0.73;0.40;;;15.80;99.90;;;;;;5107975;27;20049;-75
2023/09/21 12:22:58;;;;;;;;;;;15.80;99.90;;;;;;5111069;27;20031;-75
2023/09/21 12:25:24;;;;;;;0.47;0.30;;;15.70;99.90;;;;;;5083686;28;19931;-75
2023/09/21 12:27:50;;;;;;;0.65;0.30;;;15.70;99.90;;;;;;5108230;27;20084;-75
2023/09/21 12:30:17;;;;;;;;;;;15.90;99.90;;;;;;5086975;28;20183;-76
2023/09/21 12:32:43;;;;;;;0.30;0.20;;;15.80;99.90;;;;;;5106353;27;20537;-75
2023/09/21 12:35:10;;;;;;;0.20;0.20;;;15.90;99.90;;;;;;5081095;28;20036;-76
2023/09/21 12:37:39;;;;;;;0.40;0.30;;;15.90;99.90;;;;;;5093340;28;20430;-76
2023/09/21 12:40:15;;;;;;;0.70;0.30;;;15.90;99.90;;;;;;5088752;27;20040;-75
2023/09/21 12:42:42;;;;;;;;;;;15.80;99.90;;;;;;5093960;28;20044;-75
2023/09/21 12:45:12;;;;;;;0.50;0.30;;;16.00;99.90;;;;;;5076477;28;20014;-76
2023/09/21 12:47:41;;;;;;;0.57;0.40;;;16.00;99.90;;;;;;5092922;28;20047;-76
2023/09/21 12:50:09;;;;;;;0.93;0.30;;;16.00;99.90;;;;;;5092759;28;20510;-76
2023/09/21 12:52:35;;;;;;;0.63;0.45;;;16.10;99.90;;;;;;5086658;28;20512;-76
2023/09/21 12:55:07;;;;;;;0.32;0.30;;;16.00;99.90;;;;;;5069502;28;20039;-76
2023/09/21 12:57:38;;;;;;;0.40;0.40;;;16.10;99.90;;;;;;5105942;27;20350;-76
2023/09/21 13:00:17;;;;;;;0.55;0.30;;;16.10;99.90;;;;;;5099032;28;20050;-76
2023/09/21 13:02:44;;;;;;;0.55;0.40;;;16.00;99.90;;;;;;5100369;28;20047;-76
2023/09/21 13:05:14;;;;;;;0.63;0.30;;;16.10;99.90;;;;;;5085933;28;20048;-76